We Are Vancouver.

Screenshot by Josh Jenk

Come explore the left of Canada.  


  Upcoming Events

C1 OTS Rocky Bozak  February 12, 2023 23:00z
Props Across The Strait  February 19, 2023 21:00z
S3 OTS Matthew Leon  February 24, 2023 02:00z

  Top Controllers this Month

Alexander Jonsson 1177383
19:08

Rocky Bozak 1554483
13:35

Kyle "The FSS Guy" 1533097
07:53

Karl Neumann 1072212
07:07

Matthew Leon 1443735
06:51

  Online Controllers

No controllers online.

  Weather

CYVR - Vancouver International Airport   VFR
CYVR 040900Z 09009KT 10SM -RA FEW028 BKN042 BKN065 OVC075 07/07 A2999 RMK SC1SC5SC2AC1 SC TR SLP159

CYYJ - Victoria International Airport   VFR
CYYJ 040900Z 15006KT 15SM -RA FEW010 SCT054 BKN080 OVC100 07/07 A2998 RMK SC1SC4AC3AC1 SC TR SLP155

CYLW - Kelowna International Airport   VFR
CYLW 040900Z AUTO 16008KT 9SM BKN071 OVC081 02/M03 A2997 RMK SLP169

CYXS - Prince George Airport   VFR
CYXS 040900Z AUTO 18012G17KT 9SM BKN066 OVC110 01/M01 A2963 RMK SLP065

CYXX - Abbotsford International Airport   VFR
CYXX 040900Z 18006KT 7SM SCT036 BKN063 BKN085 OVC110 08/05 A2999 RMK CU3SC3AC1AC1 SLP159

CYQQ - Comox Valley Airport / CFB Comox   VFR
CYQQ 040900Z 15010KT 15SM -RA OVC045 07/05 A2992 RMK SC8 SLP135